Time;durP1;ratioP1;P1;durP2;ratioP2;P2;SDS_P1;SDS_P2;PMS_P1;PMS_P2;Temp;Humidity;BMP_temperature;BMP_pressure;BME280_temperature;BME280_humidity;BME280_pressure;Samples;Min_cycle;Max_cycle;Signal;HPM_P1;HPM_P2
2022/07/08 00:00:54;;;;;;;;;;;11.90;99.90;;;;;;5067501;28;20036;-65
2022/07/08 00:03:34;;;;;;;7.22;1.67;;;11.80;99.90;;;;;;5083018;28;19997;-65
2022/07/08 00:06:15;;;;;;;8.35;2.00;;;11.70;99.90;;;;;;5083160;28;20044;-65
2022/07/08 00:08:56;;;;;;;12.73;1.83;;;11.70;99.90;;;;;;5092577;28;20036;-65
2022/07/08 00:11:37;;;;;;;14.38;1.83;;;11.70;99.90;;;;;;5095679;28;20062;-65
2022/07/08 00:14:18;;;;;;;7.80;2.03;;;11.70;99.90;;;;;;5093412;28;20042;-65
2022/07/08 00:16:58;;;;;;;10.23;1.98;;;11.60;99.90;;;;;;5087232;28;20032;-65
2022/07/08 00:19:39;;;;;;;8.10;1.50;;;11.70;99.90;;;;;;5078011;28;20099;-64
2022/07/08 00:22:20;;;;;;;9.55;1.98;;;11.70;99.90;;;;;;5077501;28;20107;-65
2022/07/08 00:25:05;;;;;;;16.75;2.08;;;11.70;99.90;;;;;;5076687;28;20151;-65
2022/07/08 00:27:30;;;;;;;15.50;2.35;;;11.70;99.90;;;;;;5076998;28;20049;-65
2022/07/08 00:29:56;;;;;;;;;;;11.80;99.90;;;;;;5088919;28;20424;-65
2022/07/08 00:32:22;;;;;;;12.90;2.33;;;11.80;99.90;;;;;;5085804;28;19984;-65
2022/07/08 00:34:47;;;;;;;;;;;11.70;99.90;;;;;;5077771;28;20032;-64
2022/07/08 00:37:13;;;;;;;11.60;1.83;;;11.70;99.90;;;;;;5076658;28;19980;-65
2022/07/08 00:39:39;;;;;;;;;;;11.80;99.90;;;;;;5079583;28;20055;-64
2022/07/08 00:42:05;;;;;;;11.60;1.92;;;11.80;99.90;;;;;;5080521;28;19965;-63
2022/07/08 00:44:32;;;;;;;12.60;1.92;;;11.70;99.90;;;;;;5078155;28;20040;-64
2022/07/08 00:47:16;;;;;;;11.40;2.22;;;11.70;99.90;;;;;;5076294;28;20093;-65
2022/07/08 00:50:03;;;;;;;14.00;2.05;;;11.60;99.90;;;;;;5068104;28;20032;-66
2022/07/08 00:52:49;;;;;;;8.25;1.77;;;11.50;99.90;;;;;;5068161;28;20027;-65
2022/07/08 00:55:35;;;;;;;11.27;2.00;;;11.60;99.90;;;;;;5066319;28;20055;-65
2022/07/08 00:58:22;;;;;;;10.67;2.60;;;11.60;99.90;;;;;;5067846;28;20094;-65
2022/07/08 01:00:54;;;;;;;11.35;1.90;;;11.60;99.90;;;;;;5074405;28;20060;-65
2022/07/08 01:03:20;;;;;;;;;;;11.60;99.90;;;;;;5080801;28;20064;-66
2022/07/08 01:05:45;;;;;;;10.25;1.70;;;11.50;99.90;;;;;;5080754;28;19931;-65
2022/07/08 01:08:11;;;;;;;;;;;11.50;99.90;;;;;;5075035;28;20041;-65
2022/07/08 01:10:37;;;;;;;8.00;1.65;;;11.50;99.90;;;;;;5086306;28;20319;-65
2022/07/08 01:13:03;;;;;;;;;;;11.50;99.90;;;;;;5085269;28;20033;-65
2022/07/08 01:15:29;;;;;;;8.75;1.73;;;11.50;99.90;;;;;;5068947;28;19924;-65
2022/07/08 01:17:55;;;;;;;9.88;2.45;;;11.50;99.90;;;;;;5068421;28;20032;-65
2022/07/08 01:20:20;;;;;;;;;;;11.60;99.90;;;;;;5068568;28;20043;-65
2022/07/08 01:22:46;;;;;;;11.27;2.45;;;11.60;99.90;;;;;;5083582;28;19923;-65
2022/07/08 01:25:12;;;;;;;;;;;11.60;99.90;;;;;;5088725;28;20051;-65
2022/07/08 01:27:38;;;;;;;9.73;1.77;;;11.70;99.90;;;;;;5068695;28;20002;-65
2022/07/08 01:30:05;;;;;;;10.23;1.70;;;11.70;99.90;;;;;;5083902;28;20051;-65
2022/07/08 01:32:39;;;;;;;11.65;2.05;;;11.70;99.90;;;;;;5079706;28;20052;-65
2022/07/08 01:35:05;;;;;;;5.38;1.38;;;11.70;99.90;;;;;;5077197;28;20046;-65
2022/07/08 01:37:31;;;;;;;6.57;1.67;;;11.70;99.90;;;;;;5066698;28;20044;-65
2022/07/08 01:39:56;;;;;;;;;;;11.60;99.90;;;;;;5076835;28;20494;-65
2022/07/08 01:42:22;;;;;;;10.15;2.00;;;11.60;99.90;;;;;;5077992;28;19974;-65
2022/07/08 01:44:48;;;;;;;;;;;11.60;99.90;;;;;;5076317;28;20043;-65
2022/07/08 01:47:13;;;;;;;8.98;1.83;;;11.70;99.90;;;;;;5075215;28;20011;-65
2022/07/08 01:49:39;;;;;;;;;;;11.70;99.90;;;;;;5079579;28;20040;-65
2022/07/08 01:52:06;;;;;;;11.65;1.60;;;11.70;99.90;;;;;;5074606;28;19927;-65
2022/07/08 01:54:32;;;;;;;7.65;1.55;;;11.70;99.90;;;;;;5070354;28;20047;-65
2022/07/08 01:57:18;;;;;;;11.20;1.42;;;11.80;99.90;;;;;;5065598;28;20044;-65
2022/07/08 01:59:46;;;;;;;10.43;2.22;;;11.80;99.90;;;;;;5080607;28;20531;-65
2022/07/08 02:02:13;;;;;;;5.72;1.40;;;11.80;99.90;;;;;;5086044;28;20076;-65
2022/07/08 02:04:40;;;;;;;10.38;1.85;;;11.70;99.90;;;;;;5085309;28;20106;-64
2022/07/08 02:07:06;;;;;;;6.60;1.40;;;11.70;99.90;;;;;;5081499;28;20052;-65
2022/07/08 02:09:32;;;;;;;12.02;1.80;;;11.60;99.90;;;;;;5080887;28;20083;-65
2022/07/08 02:14:42;;;;;;;11.23;2.05;;;11.70;99.90;;;;;;5085919;28;20040;-65
2022/07/08 02:17:08;;;;;;;;;;;11.60;99.90;;;;;;5085054;28;20047;-65
2022/07/08 02:19:34;;;;;;;8.38;1.63;;;11.60;99.90;;;;;;5085213;28;19923;-64
2022/07/08 02:22:00;;;;;;;15.93;1.90;;;11.50;99.90;;;;;;5084481;28;20043;-65
2022/07/08 02:24:26;;;;;;;;;;;11.40;99.90;;;;;;5085926;28;20043;-66
2022/07/08 02:26:51;;;;;;;14.18;1.77;;;11.50;99.90;;;;;;5085379;28;19923;-65
2022/07/08 02:29:17;;;;;;;;;;;11.50;99.90;;;;;;5086633;28;20500;-65
2022/07/08 02:31:42;;;;;;;12.45;2.17;;;11.50;99.90;;;;;;5081001;28;19963;-65
2022/07/08 02:34:08;;;;;;;;;;;11.50;99.90;;;;;;5070589;28;20035;-65
2022/07/08 02:36:33;;;;;;;6.85;1.15;;;11.60;99.90;;;;;;5084973;28;19963;-65
2022/07/08 02:38:59;;;;;;;;;;;11.60;99.90;;;;;;5080669;28;20038;-65
2022/07/08 02:41:24;;;;;;;9.90;1.70;;;11.60;99.90;;;;;;5085308;28;19926;-65
2022/07/08 02:43:50;;;;;;;;;;;11.70;99.90;;;;;;5084857;28;20073;-65
2022/07/08 02:46:15;;;;;;;11.73;1.88;;;11.60;99.90;;;;;;5078255;28;19924;-66
2022/07/08 02:48:41;;;;;;;;;;;11.50;99.90;;;;;;5082384;28;20666;-65
2022/07/08 02:51:07;;;;;;;13.43;2.42;;;11.60;99.90;;;;;;5085116;28;19994;-65
2022/07/08 02:53:32;;;;;;;;;;;11.50;99.90;;;;;;5085241;28;20044;-65
2022/07/08 02:55:58;;;;;;;6.85;1.23;;;11.50;99.90;;;;;;5087033;28;19916;-65
2022/07/08 02:58:24;;;;;;;;;;;11.50;99.90;;;;;;5086730;28;20043;-65
2022/07/08 03:00:49;;;;;;;8.25;1.88;;;11.60;99.90;;;;;;5087136;28;19923;-65
2022/07/08 03:03:15;;;;;;;;;;;11.60;99.90;;;;;;5087215;28;20695;-65
2022/07/08 03:05:40;;;;;;;5.63;1.50;;;11.60;99.90;;;;;;5085817;28;20053;-65
2022/07/08 03:08:06;;;;;;;;;;;11.60;99.90;;;;;;5087237;28;20043;-65
2022/07/08 03:10:32;;;;;;;11.10;2.60;;;11.50;99.90;;;;;;5085215;28;19920;-65
2022/07/08 03:12:58;;;;;;;7.40;1.73;;;11.50;99.90;;;;;;5086869;28;20047;-65
2022/07/08 03:15:24;;;;;;;;;;;11.50;99.90;;;;;;5087249;28;20044;-65
2022/07/08 03:17:50;;;;;;;8.52;1.60;;;11.50;99.90;;;;;;5086777;28;20369;-65
2022/07/08 03:20:15;;;;;;;;;;;11.60;99.90;;;;;;5086811;28;20024;-65
2022/07/08 03:22:41;;;;;;;8.38;1.58;;;11.60;99.90;;;;;;5086787;28;20497;-65
2022/07/08 03:25:06;;;;;;;;;;;11.50;99.90;;;;;;5087592;28;20059;-65
2022/07/08 03:27:32;;;;;;;13.23;1.95;;;11.60;99.90;;;;;;5086679;28;19920;-65
2022/07/08 03:29:57;;;;;;;;;;;11.60;99.90;;;;;;5087860;28;20032;-65
2022/07/08 03:32:23;;;;;;;7.35;1.30;;;11.60;99.90;;;;;;5086213;28;19920;-65
2022/07/08 03:34:49;;;;;;;;;;;11.60;99.90;;;;;;5087317;28;20047;-65
2022/07/08 03:37:14;;;;;;;10.82;1.83;;;11.50;99.90;;;;;;5086299;28;19954;-65
2022/07/08 03:39:40;;;;;;;;;;;11.50;99.90;;;;;;5086761;28;20085;-65
2022/07/08 03:42:06;;;;;;;9.95;2.47;;;11.50;99.90;;;;;;5086485;28;19962;-65
2022/07/08 03:44:31;;;;;;;;;;;11.50;99.90;;;;;;5086078;28;20044;-65
2022/07/08 03:46:57;;;;;;;14.70;1.73;;;11.50;99.90;;;;;;5080106;28;19971;-65
2022/07/08 03:49:22;;;;;;;;;;;11.50;99.90;;;;;;5065409;28;20476;-65
2022/07/08 03:51:48;;;;;;;9.50;1.30;;;11.50;99.90;;;;;;5080952;28;19923;-65
2022/07/08 03:54:13;;;;;;;;;;;11.50;99.90;;;;;;5088427;28;20040;-65
2022/07/08 03:56:39;;;;;;;22.15;2.50;;;11.60;99.90;;;;;;5084849;28;19920;-65
2022/07/08 03:59:05;;;;;;;;;;;11.50;99.90;;;;;;5088273;28;20039;-65
2022/07/08 04:01:30;;;;;;;18.85;1.90;;;11.50;99.90;;;;;;5088494;28;19920;-65
2022/07/08 04:03:56;;;;;;;;;;;11.50;99.90;;;;;;5088384;28;20506;-65
2022/07/08 04:06:21;;;;;;;11.50;1.73;;;11.50;99.90;;;;;;5087831;28;19926;-65
2022/07/08 04:08:47;;;;;;;;;;;11.50;99.90;;;;;;5082997;28;20500;-65
2022/07/08 04:11:13;;;;;;;15.13;2.53;;;11.50;99.90;;;;;;5088466;28;20483;-65
2022/07/08 04:13:38;;;;;;;;;;;11.30;99.90;;;;;;5089241;28;20028;-65
2022/07/08 04:16:14;;;;;;;10.07;2.38;;;11.40;99.90;;;;;;5087100;28;20666;-65
2022/07/08 04:18:40;;;;;;;8.55;1.63;;;11.30;99.90;;;;;;5088472;28;20054;-65
2022/07/08 04:21:06;;;;;;;14.05;2.40;;;11.30;99.90;;;;;;5087857;28;20803;-65
2022/07/08 04:23:32;;;;;;;11.32;1.77;;;11.30;99.90;;;;;;5088389;28;20071;-65
2022/07/08 04:25:58;;;;;;;;;;;11.40;99.90;;;;;;5087202;28;20133;-65
2022/07/08 04:28:23;;;;;;;9.10;2.75;;;11.60;99.90;;;;;;5087764;28;19923;-65
2022/07/08 04:30:49;;;;;;;;;;;11.70;99.90;;;;;;5088205;28;20032;-65
2022/07/08 04:33:15;;;;;;;11.88;2.10;;;11.80;99.90;;;;;;5085901;28;20438;-65
2022/07/08 04:35:40;;;;;;;;;;;11.80;99.90;;;;;;5088276;28;20032;-67
2022/07/08 04:38:06;;;;;;;6.25;1.83;;;11.90;99.90;;;;;;5086205;28;19991;-65
2022/07/08 04:40:31;;;;;;;;;;;12.30;99.90;;;;;;5083320;28;20622;-65
2022/07/08 04:42:57;;;;;;;12.32;1.83;;;12.30;99.90;;;;;;5079761;28;20431;-65
2022/07/08 04:45:23;;;;;;;;;;;12.20;99.90;;;;;;5082845;28;20036;-65
2022/07/08 04:47:49;;;;;;;7.07;1.58;;;12.00;99.90;;;;;;5085938;28;19923;-65
2022/07/08 04:50:15;;;;;;;;;;;11.80;99.90;;;;;;5089758;28;20104;-65
2022/07/08 04:52:40;;;;;;;4.22;1.20;;;11.80;99.90;;;;;;5089508;28;19920;-65
2022/07/08 04:55:07;;;;;;;;;;;11.80;99.90;;;;;;5089985;28;20032;-65
2022/07/08 04:57:32;;;;;;;11.80;2.30;;;11.90;99.90;;;;;;5088869;28;20022;-64
2022/07/08 04:59:59;;;;;;;;;;;12.00;99.90;;;;;;5089529;28;20054;-65
2022/07/08 05:02:25;;;;;;;7.18;1.55;;;11.70;99.90;;;;;;5087855;28;19959;-65
2022/07/08 05:04:50;;;;;;;;;;;11.60;99.90;;;;;;5087764;28;20075;-65
2022/07/08 05:07:16;;;;;;;9.85;1.90;;;11.70;99.90;;;;;;5081972;28;19924;-65
2022/07/08 05:09:41;;;;;;;;;;;11.80;99.90;;;;;;5068228;28;20038;-65
2022/07/08 05:12:07;;;;;;;10.23;1.70;;;11.90;99.90;;;;;;5087346;28;20558;-65
2022/07/08 05:14:33;;;;;;;;;;;11.90;99.90;;;;;;5087418;28;20491;-65
2022/07/08 05:16:58;;;;;;;13.48;1.83;;;11.90;99.90;;;;;;5086592;28;20377;-65
2022/07/08 05:19:24;;;;;;;;;;;12.20;99.90;;;;;;5086916;28;20074;-65
2022/07/08 05:21:49;;;;;;;15.93;2.78;;;12.20;99.90;;;;;;5084120;28;19959;-65
2022/07/08 05:24:15;;;;;;;;;;;12.10;99.90;;;;;;5087892;28;20028;-65
2022/07/08 05:26:41;;;;;;;6.63;1.40;;;12.00;99.90;;;;;;5085635;28;19920;-65
2022/07/08 05:29:06;;;;;;;;;;;12.00;99.90;;;;;;5087468;28;20089;-65
2022/07/08 05:31:32;;;;;;;12.30;1.60;;;12.10;99.90;;;;;;5084767;28;19924;-64
2022/07/08 05:33:57;;;;;;;;;;;12.10;99.90;;;;;;5087089;28;20408;-65
2022/07/08 05:36:23;;;;;;;9.15;2.33;;;12.00;99.90;;;;;;5086222;28;19920;-64
2022/07/08 05:38:49;;;;;;;10.80;2.25;;;12.00;99.90;;;;;;5080522;28;20036;-65
2022/07/08 05:41:15;;;;;;;;;;;12.10;99.90;;;;;;5087694;28;20036;-65
2022/07/08 05:43:40;;;;;;;13.15;2.15;;;12.30;99.90;;;;;;5086343;28;19925;-64
2022/07/08 05:46:06;;;;;;;;;;;12.40;99.90;;;;;;5086486;28;20546;-65
2022/07/08 05:48:31;;;;;;;10.50;1.55;;;12.40;99.90;;;;;;5085886;28;19919;-65
2022/07/08 05:50:57;;;;;;;;;;;12.40;99.90;;;;;;5086976;28;20593;-63
2022/07/08 05:53:22;;;;;;;13.70;1.83;;;12.30;99.90;;;;;;5086657;28;19916;-64
2022/07/08 05:55:48;;;;;;;;;;;12.20;99.90;;;;;;5087458;28;20040;-65
2022/07/08 05:58:14;;;;;;;7.85;1.67;;;12.20;99.90;;;;;;5082197;28;19919;-65
2022/07/08 06:00:39;;;;;;;;;;;12.30;99.90;;;;;;5080830;28;20044;-65
2022/07/08 06:03:05;;;;;;;11.77;2.03;;;12.20;99.90;;;;;;5085069;28;19923;-65
2022/07/08 06:05:31;;;;;;;;;;;12.10;99.90;;;;;;5086080;28;20035;-66
2022/07/08 06:07:57;;;;;;;9.60;2.53;;;12.10;99.90;;;;;;5086374;28;20006;-64
2022/07/08 06:10:23;;;;;;;;;;;12.00;99.90;;;;;;5075744;28;20140;-65
2022/07/08 06:12:50;;;;;;;15.73;2.50;;;12.00;99.90;;;;;;5083672;28;19999;-63
2022/07/08 06:15:16;;;;;;;10.63;1.60;;;12.00;99.90;;;;;;5085650;28;20040;-64
2022/07/08 06:17:42;;;;;;;;;;;12.10;99.90;;;;;;5086205;28;20046;-64
2022/07/08 06:20:08;;;;;;;9.43;1.90;;;12.00;99.90;;;;;;5084872;28;19916;-65
2022/07/08 06:22:34;;;;;;;14.38;1.77;;;12.00;99.90;;;;;;5081410;28;20040;-63
2022/07/08 06:25:00;;;;;;;11.88;2.15;;;12.20;99.90;;;;;;5085725;28;20040;-66
2022/07/08 06:27:26;;;;;;;;;;;12.30;99.90;;;;;;5087329;28;20051;-64
2022/07/08 06:29:52;;;;;;;12.43;1.95;;;12.20;99.90;;;;;;5086702;28;19977;-66
2022/07/08 06:32:17;;;;;;;;;;;12.30;99.90;;;;;;5085837;28;20778;-67
2022/07/08 06:34:46;;;;;;;7.43;1.73;;;12.40;99.90;;;;;;5086192;28;20097;-66
2022/07/08 06:37:11;;;;;;;13.23;1.45;;;12.30;99.90;;;;;;5085635;28;20047;-69
2022/07/08 06:39:37;;;;;;;;;;;12.20;99.90;;;;;;5080353;28;20518;-67
2022/07/08 06:42:03;;;;;;;9.10;1.88;;;12.30;99.90;;;;;;5085486;28;19916;-70
2022/07/08 06:44:28;;;;;;;;;;;12.30;99.90;;;;;;5085607;28;20782;-67
2022/07/08 06:46:54;;;;;;;8.55;1.50;;;12.30;99.90;;;;;;5081745;28;20047;-68
2022/07/08 06:49:19;;;;;;;;;;;12.40;99.90;;;;;;5078662;28;20535;-65
2022/07/08 06:51:45;;;;;;;11.88;1.92;;;12.30;99.90;;;;;;5084798;28;19920;-65
2022/07/08 06:56:54;;;;;;;5.35;1.63;;;12.40;99.90;;;;;;5084144;28;20013;-64
2022/07/08 06:59:20;;;;;;;;;;;12.50;99.90;;;;;;5085947;28;20079;-65
2022/07/08 07:01:46;;;;;;;6.82;1.50;;;12.60;99.90;;;;;;5085242;28;19968;-65
2022/07/08 07:04:11;;;;;;;;;;;12.50;99.90;;;;;;5086314;28;20047;-64
2022/07/08 07:06:38;;;;;;;7.45;1.40;;;12.60;99.90;;;;;;5083823;28;19919;-65
2022/07/08 07:09:03;;;;;;;11.43;1.88;;;12.70;99.90;;;;;;5084422;28;20036;-63
2022/07/08 07:11:29;;;;;;;;;;;12.60;99.90;;;;;;5086259;28;20043;-63
2022/07/08 07:13:54;;;;;;;11.05;1.65;;;12.50;99.90;;;;;;5085091;28;19959;-62
2022/07/08 07:16:20;;;;;;;;;;;12.60;99.90;;;;;;5085987;28;20403;-64
2022/07/08 07:18:45;;;;;;;8.60;2.00;;;12.50;99.90;;;;;;5085437;28;19920;-65
2022/07/08 07:21:11;;;;;;;;;;;12.50;99.90;;;;;;5084773;28;20075;-66
2022/07/08 07:23:37;;;;;;;11.00;1.77;;;12.60;99.90;;;;;;5085482;28;19924;-64
2022/07/08 07:26:02;;;;;;;;;;;12.90;99.90;;;;;;5085660;28;20052;-65
2022/07/08 07:28:28;;;;;;;9.60;2.30;;;13.00;99.90;;;;;;5088364;28;19924;-65
2022/07/08 07:30:53;;;;;;;;;;;13.10;99.90;;;;;;5089376;28;20032;-64
2022/07/08 07:33:19;;;;;;;11.23;1.70;;;13.40;99.90;;;;;;5088321;28;19922;-65
2022/07/08 07:35:44;;;;;;;;;;;13.50;99.90;;;;;;5089008;28;20422;-66
2022/07/08 07:38:10;;;;;;;10.07;1.55;;;13.60;99.90;;;;;;5087003;28;20660;-65
2022/07/08 07:40:35;;;;;;;;;;;13.80;99.90;;;;;;5086325;28;20376;-66
2022/07/08 07:43:01;;;;;;;17.70;1.83;;;13.80;99.90;;;;;;5088605;28;19923;-66
2022/07/08 07:45:27;;;;;;;;;;;14.00;99.90;;;;;;5090079;28;20491;-65
2022/07/08 07:47:52;;;;;;;6.82;1.63;;;13.70;99.90;;;;;;5077150;28;19985;-65
2022/07/08 07:50:18;;;;;;;;;;;13.70;99.90;;;;;;5082956;28;20039;-64
2022/07/08 07:52:43;;;;;;;9.88;1.75;;;13.80;99.90;;;;;;5081496;28;19923;-66
2022/07/08 07:55:09;;;;;;;5.00;1.27;;;13.80;99.90;;;;;;5086166;28;20205;-65
2022/07/08 07:57:35;;;;;;;;;;;13.90;99.90;;;;;;5081869;28;20048;-65
2022/07/08 08:00:03;;;;;;;11.70;1.92;;;13.80;99.90;;;;;;5086137;28;19920;-65
2022/07/08 08:02:28;;;;;;;9.75;1.40;;;13.70;99.90;;;;;;5088880;28;20051;-65
2022/07/08 08:04:54;;;;;;;;;;;14.00;99.90;;;;;;5089592;28;20028;-65
2022/07/08 08:07:20;;;;;;;10.82;1.70;;;14.20;99.90;;;;;;5072753;28;20583;-64
2022/07/08 08:09:45;;;;;;;;;;;14.10;99.90;;;;;;5083765;28;20480;-65
2022/07/08 08:12:11;;;;;;;6.72;1.15;;;14.20;99.90;;;;;;5088326;28;19989;-66
2022/07/08 08:14:36;;;;;;;;;;;14.20;99.90;;;;;;5088858;28;20036;-66
2022/07/08 08:17:02;;;;;;;6.55;1.63;;;14.50;99.90;;;;;;5086930;28;19967;-64
2022/07/08 08:19:27;;;;;;;5.22;1.23;;;14.60;99.90;;;;;;5087940;28;20496;-66
2022/07/08 08:21:53;;;;;;;;;;;15.80;99.40;;;;;;5089143;28;20040;-65
2022/07/08 08:24:18;;;;;;;8.85;1.58;;;16.20;99.30;;;;;;5087511;28;19939;-65
2022/07/08 08:26:46;;;;;;;;;;;16.70;97.30;;;;;;5088453;28;20578;-64
2022/07/08 08:29:11;;;;;;;5.65;1.08;;;16.70;97.70;;;;;;5088269;28;19927;-66
2022/07/08 08:31:37;;;;;;;7.25;1.50;;;16.60;98.30;;;;;;5087648;28;20036;-65
2022/07/08 08:34:02;;;;;;;;;;;16.30;98.20;;;;;;5088809;28;20388;-64
2022/07/08 08:36:28;;;;;;;6.50;1.35;;;16.10;99.70;;;;;;5085769;28;19916;-65
2022/07/08 08:38:53;;;;;;;6.65;1.58;;;15.90;98.00;;;;;;5077249;28;20043;-66
2022/07/08 08:41:21;;;;;;;8.27;1.70;;;16.20;99.90;;;;;;5087902;28;20040;-64
2022/07/08 08:43:47;;;;;;;6.13;1.42;;;16.50;97.60;;;;;;5084229;28;20548;-66
2022/07/08 08:46:14;;;;;;;;;;;17.40;95.80;;;;;;5087484;28;20048;-65
2022/07/08 08:48:40;;;;;;;7.38;1.50;;;18.50;95.10;;;;;;5069614;28;19927;-66
2022/07/08 08:51:09;;;;;;;8.25;1.50;;;18.80;93.80;;;;;;5078425;28;20048;-66
2022/07/08 08:53:43;;;;;;;9.85;1.48;;;18.70;94.10;;;;;;5087911;28;20051;-65
2022/07/08 08:56:13;;;;;;;4.00;0.95;;;18.20;93.90;;;;;;5087203;28;20051;-66
2022/07/08 08:58:40;;;;;;;9.15;1.77;;;17.50;95.50;;;;;;5086561;28;20055;-66
2022/07/08 09:01:09;;;;;;;8.07;1.50;;;17.20;96.60;;;;;;5086851;28;20115;-65
2022/07/08 09:03:35;;;;;;;10.52;1.48;;;17.10;96.60;;;;;;5087629;28;20526;-66
2022/07/08 09:06:02;;;;;;;7.45;1.40;;;16.80;96.80;;;;;;5086648;28;20044;-66
2022/07/08 09:08:28;;;;;;;7.05;1.67;;;16.80;96.30;;;;;;5086890;28;20090;-65
2022/07/08 09:10:53;;;;;;;;;;;16.60;96.30;;;;;;5087864;28;20056;-65
2022/07/08 09:13:23;;;;;;;9.27;1.92;;;16.30;98.50;;;;;;5087822;28;20394;-64
2022/07/08 09:15:50;;;;;;;12.75;2.13;;;16.30;99.90;;;;;;5087480;28;20048;-64
2022/07/08 09:18:21;;;;;;;12.95;1.58;;;16.20;98.00;;;;;;5086806;28;20048;-63
2022/07/08 09:20:52;;;;;;;8.88;1.83;;;16.00;97.60;;;;;;5087456;28;20115;-63
2022/07/08 09:23:23;;;;;;;6.28;1.60;;;16.10;99.10;;;;;;5085146;28;20032;-65
2022/07/08 09:25:54;;;;;;;11.20;1.58;;;16.00;99.80;;;;;;5087348;28;20040;-66
2022/07/08 09:28:37;;;;;;;13.98;1.83;;;16.10;99.40;;;;;;5081166;28;20125;-66
2022/07/08 09:31:08;;;;;;;7.05;1.50;;;16.30;97.80;;;;;;5086241;28;20047;-66
2022/07/08 09:33:35;;;;;;;7.65;1.42;;;16.30;96.60;;;;;;5087361;28;20039;-67
2022/07/08 09:36:02;;;;;;;9.63;1.73;;;16.40;97.50;;;;;;5079898;28;20048;-66
2022/07/08 09:38:35;;;;;;;12.52;2.20;;;16.60;97.90;;;;;;5085469;28;20036;-66
2022/07/08 09:41:03;;;;;;;9.35;1.65;;;16.40;97.60;;;;;;5086495;28;20035;-66
2022/07/08 09:43:29;;;;;;;13.35;1.90;;;16.20;98.80;;;;;;5087322;28;20119;-66
2022/07/08 09:46:06;;;;;;;8.32;1.83;;;16.40;99.30;;;;;;5086793;28;20044;-69
2022/07/08 09:48:33;;;;;;;12.48;1.92;;;16.20;97.70;;;;;;5086636;28;20036;-68
2022/07/08 09:51:09;;;;;;;6.88;1.77;;;16.20;97.90;;;;;;5085575;28;20567;-69
2022/07/08 09:53:36;;;;;;;5.40;1.55;;;16.30;98.30;;;;;;5086874;28;20495;-69
2022/07/08 09:56:03;;;;;;;8.88;1.77;;;16.40;97.50;;;;;;5085162;28;20048;-67
2022/07/08 09:58:30;;;;;;;11.30;2.33;;;16.40;98.60;;;;;;5084876;28;20048;-68
2022/07/08 10:00:57;;;;;;;14.13;2.33;;;16.70;98.90;;;;;;5086601;28;20040;-67
2022/07/08 10:03:24;;;;;;;11.23;1.98;;;16.80;96.90;;;;;;5082586;28;20131;-67
2022/07/08 10:05:50;;;;;;;16.23;1.77;;;16.80;97.80;;;;;;5087175;28;20055;-64
2022/07/08 10:08:18;;;;;;;4.60;1.77;;;16.80;96.80;;;;;;5073367;28;20512;-65
2022/07/08 10:10:47;;;;;;;10.32;1.75;;;16.80;97.60;;;;;;5084656;28;20047;-65
2022/07/08 10:13:15;;;;;;;9.20;2.33;;;16.90;98.20;;;;;;5086525;28;20040;-66
2022/07/08 10:15:43;;;;;;;11.32;1.88;;;17.00;97.10;;;;;;5087535;28;20047;-66
2022/07/08 10:18:41;;;;;;;9.73;1.38;;;17.10;96.90;;;;;;5086181;28;20067;-65
2022/07/08 10:21:10;;;;;;;8.13;1.17;;;17.30;96.50;;;;;;5086447;28;20051;-68
2022/07/08 10:23:42;;;;;;;10.68;1.40;;;17.40;96.40;;;;;;5086811;28;20047;-65
2022/07/08 10:26:10;;;;;;;7.55;1.90;;;17.50;95.30;;;;;;5086393;28;20514;-65
2022/07/08 10:28:41;;;;;;;7.07;1.65;;;17.30;95.90;;;;;;5085999;28;20083;-66
2022/07/08 10:31:21;;;;;;;7.40;1.58;;;16.90;96.40;;;;;;5086217;28;20032;-66
2022/07/08 10:33:48;;;;;;;8.77;1.75;;;17.10;98.10;;;;;;5084416;28;20040;-65
2022/07/08 10:36:18;;;;;;;6.90;1.85;;;17.40;97.00;;;;;;5083882;28;20402;-65
2022/07/08 10:38:44;;;;;;;12.30;2.00;;;17.50;95.10;;;;;;5084664;28;20511;-65
2022/07/08 10:41:11;;;;;;;;;;;17.50;96.70;;;;;;5084521;28;20031;-67
2022/07/08 10:43:48;;;;;;;7.68;1.30;;;17.40;96.10;;;;;;5084904;28;20375;-66
2022/07/08 10:46:16;;;;;;;4.93;1.52;;;17.50;95.00;;;;;;5077999;28;20056;-65
2022/07/08 10:48:44;;;;;;;6.63;1.35;;;17.60;97.10;;;;;;5086253;28;20047;-66
2022/07/08 10:51:23;;;;;;;7.82;1.30;;;17.70;96.80;;;;;;5086341;28;20044;-66
2022/07/08 10:53:53;;;;;;;5.90;1.23;;;18.00;95.70;;;;;;5083911;28;20119;-66
2022/07/08 10:56:49;;;;;;;9.88;1.33;;;18.20;96.10;;;;;;5086028;28;20044;-66
2022/07/08 10:59:35;;;;;;;6.75;1.48;;;18.10;94.70;;;;;;5076551;28;20037;-64
2022/07/08 11:02:03;;;;;;;8.77;1.45;;;18.20;94.70;;;;;;5074700;28;20120;-66
2022/07/08 11:04:34;;;;;;;6.07;1.17;;;18.30;94.80;;;;;;5077798;28;20112;-66
2022/07/08 11:07:24;;;;;;;8.15;1.80;;;18.20;94.10;;;;;;5075440;28;20076;-66
2022/07/08 11:09:51;;;;;;;4.93;1.20;;;18.20;95.20;;;;;;5074771;28;20051;-66
2022/07/08 11:12:22;;;;;;;9.65;1.50;;;18.20;96.60;;;;;;5084642;28;20047;-65
2022/07/08 11:14:49;;;;;;;7.07;1.20;;;18.00;95.60;;;;;;5085493;28;20047;-66
2022/07/08 11:17:20;;;;;;;10.00;1.33;;;18.00;95.90;;;;;;5084615;28;20048;-65
2022/07/08 11:19:49;;;;;;;8.30;1.25;;;18.10;96.20;;;;;;5064642;28;20044;-66
2022/07/08 11:22:15;;;;;;;5.45;1.10;;;18.10;96.60;;;;;;5063941;28;20040;-65
2022/07/08 11:24:42;;;;;;;;;;;18.20;95.40;;;;;;5085240;28;20050;-65
2022/07/08 11:27:08;;;;;;;7.72;1.50;;;18.40;96.30;;;;;;5084280;28;20034;-66
2022/07/08 11:29:35;;;;;;;7.75;1.20;;;18.40;95.70;;;;;;5084339;28;20124;-66
2022/07/08 11:32:03;;;;;;;12.30;1.88;;;18.60;95.60;;;;;;5083650;28;20036;-66
2022/07/08 11:34:28;;;;;;;5.68;1.08;;;18.80;95.90;;;;;;5085295;28;20063;-66
2022/07/08 11:36:54;;;;;;;;;;;18.80;96.00;;;;;;5084459;28;20495;-65
2022/07/08 11:39:20;;;;;;;5.68;1.40;;;18.80;95.50;;;;;;5079332;28;19924;-66
2022/07/08 11:41:46;;;;;;;;;;;18.90;95.80;;;;;;5084891;28;20043;-66
2022/07/08 11:44:12;;;;;;;7.65;1.48;;;18.80;94.90;;;;;;5083700;28;19970;-66
2022/07/08 11:46:49;;;;;;;7.68;1.65;;;18.90;95.60;;;;;;5073891;28;20534;-65
2022/07/08 11:49:15;;;;;;;5.40;1.15;;;18.60;96.70;;;;;;5077982;28;20043;-66
2022/07/08 11:51:45;;;;;;;4.70;1.85;;;18.50;96.50;;;;;;5084464;28;20039;-66
2022/07/08 11:54:11;;;;;;;10.00;1.40;;;18.30;97.00;;;;;;5085157;28;20270;-65
2022/07/08 11:56:37;;;;;;;4.25;0.93;;;18.30;96.70;;;;;;5084423;28;20044;-65
2022/07/08 11:59:02;;;;;;;;;;;18.50;97.10;;;;;;5081194;28;20028;-65
2022/07/08 12:01:30;;;;;;;5.35;1.50;;;18.60;96.50;;;;;;5085070;28;19950;-65
2022/07/08 12:03:57;;;;;;;5.68;1.42;;;18.70;96.70;;;;;;5084846;28;20040;-64
2022/07/08 12:06:26;;;;;;;9.73;2.28;;;18.80;96.80;;;;;;5083027;28;20755;-66
2022/07/08 12:08:53;;;;;;;10.50;1.65;;;19.10;96.20;;;;;;5082259;28;20115;-66
2022/07/08 12:11:25;;;;;;;9.00;1.92;;;19.20;96.40;;;;;;5083600;28;20480;-66
2022/07/08 12:13:52;;;;;;;6.93;1.50;;;19.20;95.60;;;;;;5085238;28;20499;-65
2022/07/08 12:16:28;;;;;;;4.65;1.45;;;19.10;95.50;;;;;;5086872;28;20052;-66
2022/07/08 12:18:54;;;;;;;10.13;2.00;;;19.20;96.10;;;;;;5088209;28;20107;-66
2022/07/08 12:21:20;;;;;;;11.63;1.48;;;19.10;95.70;;;;;;5088046;28;20127;-66
2022/07/08 12:24:02;;;;;;;10.18;1.67;;;19.00;96.20;;;;;;5088233;28;20035;-65
2022/07/08 12:26:29;;;;;;;5.38;1.17;;;19.20;96.80;;;;;;5088113;28;20541;-66
2022/07/08 12:28:56;;;;;;;5.18;1.40;;;19.20;96.50;;;;;;5088332;28;20035;-66
2022/07/08 12:31:33;;;;;;;10.40;1.88;;;19.20;96.70;;;;;;5087204;28;20131;-65
2022/07/08 12:34:08;;;;;;;7.28;1.50;;;19.20;96.70;;;;;;5088234;28;20043;-65
2022/07/08 12:36:34;;;;;;;7.20;1.65;;;19.30;96.40;;;;;;5087233;28;20178;-66
2022/07/08 12:39:18;;;;;;;;;;;19.50;96.30;;;;;;5088444;28;20560;-66
2022/07/08 12:42:06;;;;;;;7.80;1.30;;;19.40;96.00;;;;;;5088416;28;19925;-66
2022/07/08 12:44:40;;;;;;;6.50;1.98;;;19.10;97.90;;;;;;5088091;28;20043;-66
2022/07/08 12:47:11;;;;;;;8.02;1.50;;;19.00;96.90;;;;;;5082975;28;20049;-66
2022/07/08 12:49:41;;;;;;;7.63;1.33;;;18.80;96.50;;;;;;5074560;28;20063;-65
2022/07/08 12:52:08;;;;;;;6.93;2.10;;;18.80;96.90;;;;;;5088464;28;20071;-66
2022/07/08 12:54:35;;;;;;;6.95;1.30;;;18.80;97.20;;;;;;5088189;28;20036;-66
2022/07/08 12:57:02;;;;;;;9.45;1.50;;;18.70;96.80;;;;;;5087147;28;20050;-66
2022/07/08 12:59:29;;;;;;;4.15;1.17;;;18.90;99.10;;;;;;5087832;28;20047;-65
2022/07/08 13:01:55;;;;;;;7.03;1.35;;;19.10;97.00;;;;;;5086609;28;20075;-66
2022/07/08 13:04:21;;;;;;;6.53;1.60;;;19.30;95.90;;;;;;5087964;28;20094;-65
2022/07/08 13:06:52;;;;;;;8.05;1.45;;;19.40;95.30;;;;;;5086114;28;20466;-66
2022/07/08 13:09:18;;;;;;;5.93;1.20;;;19.60;96.90;;;;;;5078078;28;20439;-66
2022/07/08 13:11:44;;;;;;;;;;;19.90;96.50;;;;;;5088978;28;20040;-65
2022/07/08 13:14:10;;;;;;;9.02;1.13;;;19.90;95.20;;;;;;5087994;28;19924;-66
2022/07/08 13:16:36;;;;;;;4.80;1.08;;;19.70;95.80;;;;;;5087409;28;20123;-66